Time;durP1;ratioP1;P1;durP2;ratioP2;P2;SDS_P1;SDS_P2;PMS_P1;PMS_P2;Temp;Humidity;BMP_temperature;BMP_pressure;BME280_temperature;BME280_humidity;BME280_pressure;Samples;Min_cycle;Max_cycle;Signal;HPM_P1;HPM_P2
2021/12/20 00:00:18;;;;;;;5.07;1.47;;;3.20;99.90;;;;;;5114197;28;20176;-66
2021/12/20 00:02:48;;;;;;;6.07;1.50;;;3.20;99.90;;;;;;5093146;28;20174;-68
2021/12/20 00:05:14;;;;;;;3.73;1.20;;;3.20;99.90;;;;;;5113020;28;20179;-67
2021/12/20 00:07:40;;;;;;;3.57;1.50;;;3.10;99.90;;;;;;5112578;28;20228;-67
2021/12/20 00:10:06;;;;;;;4.37;1.60;;;3.20;99.90;;;;;;5105987;28;20586;-67
2021/12/20 00:12:32;;;;;;;4.43;1.17;;;3.10;99.90;;;;;;5111116;28;20558;-68
2021/12/20 00:14:58;;;;;;;3.33;1.70;;;2.90;99.90;;;;;;5112326;28;20206;-67
2021/12/20 00:17:23;;;;;;;3.77;1.17;;;2.90;99.90;;;;;;5094697;28;20535;-67
2021/12/20 00:19:49;;;;;;;4.23;1.13;;;2.80;99.90;;;;;;5112910;28;20674;-69
2021/12/20 00:22:14;;;;;;;4.97;1.60;;;2.80;99.90;;;;;;5113204;28;20176;-67
2021/12/20 00:24:40;;;;;;;3.23;1.00;;;2.80;99.90;;;;;;5112783;28;20621;-68
2021/12/20 00:27:08;;;;;;;4.57;1.43;;;2.70;99.90;;;;;;5113250;28;20695;-68
2021/12/20 00:29:34;;;;;;;3.50;1.60;;;2.70;99.90;;;;;;5094321;28;20651;-68
2021/12/20 00:32:00;;;;;;;3.67;1.20;;;2.70;99.90;;;;;;5113159;28;20270;-68
2021/12/20 00:34:25;;;;;;;4.40;1.10;;;2.70;99.90;;;;;;5094267;28;20730;-68
2021/12/20 00:36:57;;;;;;;9.17;1.70;;;2.60;99.90;;;;;;5113067;28;20225;-68
2021/12/20 00:42:08;;;;;;;3.40;1.17;;;2.60;99.90;;;;;;5110282;28;20175;-68
2021/12/20 00:44:33;;;;;;;7.47;1.63;;;2.60;99.90;;;;;;5094333;28;20225;-68
2021/12/20 00:46:59;;;;;;;4.87;1.47;;;2.60;99.90;;;;;;5092977;28;20232;-68
2021/12/20 00:49:24;;;;;;;2.97;1.33;;;2.60;99.90;;;;;;5093964;28;20181;-68
2021/12/20 00:51:50;;;;;;;2.90;1.33;;;2.60;99.90;;;;;;5094334;28;20546;-68
2021/12/20 00:54:15;;;;;;;3.70;1.00;;;2.50;99.90;;;;;;5112254;28;20232;-68
2021/12/20 00:56:41;;;;;;;3.03;0.97;;;2.50;99.90;;;;;;5086326;28;20166;-67
2021/12/20 00:59:07;;;;;;;3.90;1.63;;;2.50;99.90;;;;;;5094382;28;20611;-67
2021/12/20 01:01:33;;;;;;;6.30;1.03;;;2.50;99.90;;;;;;5113096;28;20159;-68
2021/12/20 01:03:58;;;;;;;5.47;1.40;;;2.50;99.90;;;;;;5112972;28;20711;-68
2021/12/20 01:06:24;;;;;;;4.93;1.10;;;2.50;99.90;;;;;;5094857;28;20170;-68
2021/12/20 01:08:51;;;;;;;4.93;1.20;;;2.50;99.90;;;;;;5094505;28;20507;-68
2021/12/20 01:11:22;;;;;;;5.20;0.87;;;2.40;99.90;;;;;;5112989;28;20171;-68
2021/12/20 01:13:47;;;;;;;2.23;0.87;;;2.40;99.90;;;;;;5094378;28;20251;-68
2021/12/20 01:16:14;;;;;;;3.53;1.00;;;2.40;99.90;;;;;;5113036;28;20371;-68
2021/12/20 01:18:40;;;;;;;3.63;1.17;;;2.40;99.90;;;;;;5112597;28;20159;-68
2021/12/20 01:21:05;;;;;;;4.57;1.10;;;2.40;99.90;;;;;;5094652;28;20173;-68
2021/12/20 01:23:31;;;;;;;5.10;1.40;;;2.30;99.90;;;;;;5112657;28;20182;-69
2021/12/20 01:25:57;;;;;;;5.87;1.60;;;2.30;99.90;;;;;;5112692;28;20164;-68
2021/12/20 01:28:22;;;;;;;3.90;1.10;;;2.30;99.90;;;;;;5112202;28;20166;-68
2021/12/20 01:30:48;;;;;;;7.33;1.40;;;2.30;99.90;;;;;;5112816;28;20674;-68
2021/12/20 01:33:14;;;;;;;4.00;1.07;;;2.30;99.90;;;;;;5112654;28;20181;-68
2021/12/20 01:35:40;;;;;;;3.37;1.03;;;2.30;99.90;;;;;;5093400;28;20204;-68
2021/12/20 01:38:06;;;;;;;6.57;1.23;;;2.30;99.90;;;;;;5085360;28;20162;-67
2021/12/20 01:40:34;;;;;;;4.20;1.17;;;2.30;99.90;;;;;;5112446;28;20173;-68
2021/12/20 01:43:00;;;;;;;3.83;1.13;;;2.30;99.90;;;;;;5112311;28;20176;-68
2021/12/20 01:45:28;;;;;;;3.87;1.17;;;2.20;99.90;;;;;;5094061;28;20161;-68
2021/12/20 01:48:04;;;;;;;4.67;1.50;;;2.20;99.90;;;;;;5093768;28;20234;-68
2021/12/20 01:50:48;;;;;;;4.33;1.30;;;2.20;99.90;;;;;;5094230;28;20191;-68
2021/12/20 01:53:19;;;;;;;2.83;0.97;;;2.20;99.90;;;;;;5112144;28;20185;-68
2021/12/20 01:55:44;;;;;;;4.03;1.30;;;2.20;99.90;;;;;;5112126;28;20193;-67
2021/12/20 01:58:11;;;;;;;3.87;1.27;;;2.10;99.90;;;;;;5110471;28;20182;-68
2021/12/20 02:00:37;;;;;;;3.40;0.90;;;2.20;99.90;;;;;;5090912;28;20597;-68
2021/12/20 02:03:03;;;;;;;6.83;1.23;;;2.20;99.90;;;;;;5101044;28;20159;-68
2021/12/20 02:08:14;;;;;;;4.60;1.23;;;2.10;99.90;;;;;;5107251;28;20676;-67
2021/12/20 02:10:40;;;;;;;3.60;0.93;;;2.10;99.90;;;;;;5085257;28;20650;-68
2021/12/20 02:13:06;;;;;;;6.00;1.53;;;2.10;99.90;;;;;;5111649;28;20173;-68
2021/12/20 02:15:31;;;;;;;4.17;1.93;;;2.10;99.90;;;;;;5111522;28;20189;-68
2021/12/20 02:17:57;;;;;;;5.93;1.20;;;2.10;99.90;;;;;;5110505;28;20180;-68
2021/12/20 02:20:28;;;;;;;6.33;1.20;;;2.10;99.90;;;;;;5111142;28;20178;-68
2021/12/20 02:22:59;;;;;;;3.07;1.00;;;2.10;99.90;;;;;;5108051;28;20563;-68
2021/12/20 02:25:25;;;;;;;2.67;0.97;;;2.10;99.90;;;;;;5103109;28;20181;-68
2021/12/20 02:27:51;;;;;;;3.20;0.90;;;2.10;99.90;;;;;;5111456;28;20230;-68
2021/12/20 02:38:28;;;;;;;8.17;2.00;;;2.10;99.90;;;;;;5109357;28;20231;-68
2021/12/20 02:41:18;;;;;;;7.47;1.40;;;2.00;99.90;;;;;;5091517;28;20269;-68
2021/12/20 02:43:55;;;;;;;4.60;1.10;;;2.00;99.90;;;;;;5105772;28;20254;-68
2021/12/20 02:46:48;;;;;;;3.47;1.20;;;2.10;99.90;;;;;;5092895;28;20173;-68
2021/12/20 02:49:16;;;;;;;5.67;0.80;;;2.10;99.90;;;;;;5088462;28;20261;-68
2021/12/20 02:51:43;;;;;;;2.30;0.90;;;2.00;99.90;;;;;;5089738;28;20267;-68
2021/12/20 02:54:11;;;;;;;4.43;0.83;;;2.00;99.90;;;;;;5087702;28;20194;-69
2021/12/20 02:56:37;;;;;;;5.73;1.07;;;2.00;99.90;;;;;;5111470;28;20235;-68
2021/12/20 02:59:05;;;;;;;4.93;1.17;;;2.00;99.90;;;;;;5092453;28;20170;-68
2021/12/20 03:01:31;;;;;;;2.47;1.00;;;2.00;99.90;;;;;;5103204;28;20184;-68
2021/12/20 03:03:58;;;;;;;4.73;1.13;;;2.00;99.90;;;;;;5111445;28;20190;-68
2021/12/20 03:06:26;;;;;;;4.00;1.40;;;2.10;99.90;;;;;;5111570;28;20178;-68
2021/12/20 03:08:53;;;;;;;2.03;0.80;;;2.10;99.90;;;;;;5110994;28;20245;-68
2021/12/20 03:11:22;;;;;;;6.77;1.20;;;2.10;99.90;;;;;;5111313;28;20169;-68
2021/12/20 03:13:51;;;;;;;2.77;0.80;;;2.00;99.90;;;;;;5092711;28;20210;-68
2021/12/20 03:16:17;;;;;;;4.93;0.97;;;2.00;99.90;;;;;;5111550;28;20200;-68
2021/12/20 03:18:42;;;;;;;3.80;1.27;;;2.00;99.90;;;;;;5111028;28;20202;-68
2021/12/20 03:21:08;;;;;;;2.67;0.70;;;2.00;99.90;;;;;;5102838;28;20169;-68
2021/12/20 03:23:33;;;;;;;4.40;1.00;;;2.00;99.90;;;;;;5109287;28;20680;-68
2021/12/20 03:25:59;;;;;;;6.90;1.33;;;2.00;99.90;;;;;;5093058;28;20174;-68
2021/12/20 03:28:24;;;;;;;5.57;1.47;;;2.00;99.90;;;;;;5092601;28;20181;-68
2021/12/20 03:30:50;;;;;;;7.20;1.10;;;2.00;99.90;;;;;;5095813;28;20503;-68
2021/12/20 03:33:16;;;;;;;7.07;1.40;;;2.00;99.90;;;;;;5096442;28;20558;-68
2021/12/20 03:35:41;;;;;;;6.40;1.23;;;1.90;99.90;;;;;;5114825;28;20197;-68
2021/12/20 03:38:08;;;;;;;4.67;1.20;;;2.00;99.90;;;;;;5096243;28;20166;-68
2021/12/20 03:40:34;;;;;;;9.90;1.53;;;2.00;99.90;;;;;;5096450;28;20174;-68
2021/12/20 03:43:00;;;;;;;2.20;0.93;;;2.00;99.90;;;;;;5096254;28;20306;-68
2021/12/20 03:45:25;;;;;;;6.80;1.43;;;2.00;99.90;;;;;;5096611;28;20201;-68
2021/12/20 03:47:51;;;;;;;4.10;1.37;;;2.00;99.90;;;;;;5096254;28;20180;-69
2021/12/20 03:50:17;;;;;;;10.63;1.30;;;1.90;99.90;;;;;;5096522;28;20172;-71
2021/12/20 03:52:44;;;;;;;6.03;1.63;;;1.90;99.90;;;;;;5114911;28;20581;-71
2021/12/20 03:55:13;;;;;;;4.90;1.40;;;1.90;99.90;;;;;;5114556;28;20201;-68
2021/12/20 03:57:38;;;;;;;7.33;1.40;;;1.90;99.90;;;;;;5096461;28;20594;-71
2021/12/20 04:00:12;;;;;;;5.73;1.23;;;1.90;99.90;;;;;;5096525;28;20260;-71
2021/12/20 04:02:41;;;;;;;5.40;1.00;;;1.90;99.90;;;;;;5096559;28;20227;-68
2021/12/20 04:05:08;;;;;;;6.73;1.17;;;1.80;99.90;;;;;;5096155;28;20197;-68
2021/12/20 04:07:34;;;;;;;3.83;1.30;;;1.70;99.90;;;;;;5096085;28;20181;-68
2021/12/20 04:10:00;;;;;;;6.20;1.17;;;1.70;99.90;;;;;;5095961;28;20173;-71
2021/12/20 04:12:25;;;;;;;4.77;1.43;;;1.70;99.90;;;;;;5114263;28;20177;-71
2021/12/20 04:14:51;;;;;;;5.33;1.07;;;1.70;99.90;;;;;;5090230;22;20255;-76
2021/12/20 04:17:17;;;;;;;5.60;1.33;;;1.70;99.90;;;;;;5058675;28;20363;-74
2021/12/20 04:19:42;;;;;;;4.47;1.40;;;1.70;99.90;;;;;;5091545;28;20510;-74
2021/12/20 04:22:08;;;;;;;4.37;1.43;;;1.70;99.90;;;;;;5075353;28;20170;-74
2021/12/20 04:24:34;;;;;;;5.13;1.17;;;1.60;99.90;;;;;;5079670;28;20521;-74
2021/12/20 04:27:00;;;;;;;7.17;1.77;;;1.60;99.90;;;;;;5092405;28;20175;-74
2021/12/20 04:29:28;;;;;;;5.53;1.40;;;1.60;99.90;;;;;;5092061;28;20209;-76
2021/12/20 04:31:53;;;;;;;5.13;1.40;;;1.60;99.90;;;;;;5092338;28;20210;-74
2021/12/20 04:34:19;;;;;;;4.43;0.87;;;1.60;99.90;;;;;;5093187;28;20243;-74
2021/12/20 04:36:45;;;;;;;4.80;1.57;;;1.60;99.90;;;;;;5091913;28;20223;-74
2021/12/20 04:39:15;;;;;;;4.47;1.50;;;1.60;99.90;;;;;;5091764;28;20162;-76
2021/12/20 04:41:40;;;;;;;9.07;1.80;;;1.60;99.90;;;;;;5092864;28;20191;-74
2021/12/20 04:44:06;;;;;;;7.30;1.50;;;1.50;99.90;;;;;;5093087;28;20269;-74
2021/12/20 04:46:32;;;;;;;8.00;1.60;;;1.50;99.90;;;;;;5092032;28;20173;-74
2021/12/20 04:48:57;;;;;;;4.87;1.40;;;1.60;99.90;;;;;;5091808;28;20223;-74
2021/12/20 04:51:23;;;;;;;8.00;1.40;;;1.60;99.90;;;;;;5092872;28;20159;-74
2021/12/20 04:53:48;;;;;;;5.57;1.47;;;1.60;99.90;;;;;;5091459;28;20181;-74
2021/12/20 04:56:14;;;;;;;9.07;1.83;;;1.50;99.90;;;;;;5092958;28;20212;-74
2021/12/20 04:58:39;;;;;;;8.20;1.63;;;1.50;99.90;;;;;;5091189;28;20204;-73
2021/12/20 05:01:05;;;;;;;3.30;1.40;;;1.50;99.90;;;;;;5091700;28;20180;-73
2021/12/20 05:03:31;;;;;;;5.70;1.50;;;1.50;99.90;;;;;;5091450;28;20213;-74
2021/12/20 05:05:56;;;;;;;4.83;1.47;;;1.50;99.90;;;;;;5091301;28;20190;-74
2021/12/20 05:08:22;;;;;;;9.17;1.60;;;1.50;99.90;;;;;;5091070;28;20171;-74
2021/12/20 05:10:48;;;;;;;5.57;1.47;;;1.50;99.90;;;;;;5091383;28;20170;-74
2021/12/20 05:13:13;;;;;;;8.27;1.60;;;1.60;99.90;;;;;;5091291;28;20175;-74
2021/12/20 05:15:40;;;;;;;3.83;1.33;;;1.50;99.90;;;;;;5091184;28;20647;-74
2021/12/20 05:18:09;;;;;;;8.57;1.83;;;1.50;99.90;;;;;;5090989;28;20229;-74
2021/12/20 05:20:35;;;;;;;8.83;1.67;;;1.60;99.90;;;;;;5091239;28;20176;-74
2021/12/20 05:23:04;;;;;;;7.03;1.50;;;1.50;99.90;;;;;;5091276;28;20395;-74
2021/12/20 05:25:30;;;;;;;6.53;1.50;;;1.60;99.90;;;;;;5091178;28;20197;-74
2021/12/20 05:27:55;;;;;;;5.47;1.87;;;1.60;99.90;;;;;;5090600;28;20185;-73
2021/12/20 05:30:21;;;;;;;10.60;1.93;;;1.60;99.90;;;;;;5091234;28;20237;-74
2021/12/20 05:32:48;;;;;;;9.77;3.27;;;1.60;99.90;;;;;;5090795;28;20247;-74
2021/12/20 05:35:15;;;;;;;6.83;2.83;;;1.60;99.90;;;;;;5090970;28;20214;-74
2021/12/20 05:37:41;;;;;;;7.60;1.90;;;1.60;99.90;;;;;;5092686;28;20203;-74
2021/12/20 05:40:09;;;;;;;20.37;8.60;;;1.60;99.90;;;;;;5095756;28;20178;-74
2021/12/20 05:42:35;;;;;;;8.33;3.47;;;1.60;99.90;;;;;;5096594;28;20201;-75
2021/12/20 05:45:02;;;;;;;5.73;1.70;;;1.60;99.90;;;;;;5095064;28;20201;-74
2021/12/20 05:47:28;;;;;;;6.70;1.73;;;1.60;99.90;;;;;;5093708;28;20720;-74
2021/12/20 05:49:54;;;;;;;7.37;1.80;;;1.60;99.90;;;;;;5091857;28;20162;-75
2021/12/20 05:52:19;;;;;;;4.23;1.43;;;1.70;99.90;;;;;;5092000;28;20168;-74
2021/12/20 05:54:45;;;;;;;4.47;1.30;;;1.60;99.90;;;;;;5091999;28;20690;-74
2021/12/20 05:57:11;;;;;;;4.47;1.30;;;1.70;99.90;;;;;;5092700;28;20171;-74
2021/12/20 05:59:36;;;;;;;4.90;1.60;;;1.70;99.90;;;;;;5092063;28;20175;-74
2021/12/20 06:02:03;;;;;;;8.50;1.87;;;1.70;99.90;;;;;;5092724;28;20166;-74
2021/12/20 06:04:29;;;;;;;5.10;1.50;;;1.70;99.90;;;;;;5090910;28;20286;-74
2021/12/20 06:06:54;;;;;;;5.80;1.60;;;1.70;99.90;;;;;;5091959;28;20214;-75
2021/12/20 06:09:20;;;;;;;8.60;1.40;;;1.70;99.90;;;;;;5090110;28;20178;-74
2021/12/20 06:11:45;;;;;;;7.83;2.07;;;1.70;99.90;;;;;;5090508;28;20179;-74
2021/12/20 06:14:11;;;;;;;3.67;1.37;;;1.70;99.90;;;;;;5089963;28;20202;-74
2021/12/20 06:16:36;;;;;;;7.10;1.67;;;1.70;99.90;;;;;;5090600;28;20174;-77
2021/12/20 06:19:03;;;;;;;4.87;1.87;;;1.60;99.90;;;;;;5089964;28;20389;-74
2021/12/20 06:21:28;;;;;;;7.77;1.73;;;1.70;99.90;;;;;;5090208;28;20216;-74
2021/12/20 06:23:54;;;;;;;8.23;2.10;;;1.60;99.90;;;;;;5091315;28;20166;-74
2021/12/20 06:26:23;;;;;;;3.70;1.20;;;1.60;99.90;;;;;;5090095;28;20253;-74
2021/12/20 06:28:50;;;;;;;6.13;1.50;;;1.60;99.90;;;;;;5089721;28;20172;-74
2021/12/20 06:31:15;;;;;;;3.27;1.13;;;1.70;99.90;;;;;;5090222;28;20180;-74
2021/12/20 06:33:41;;;;;;;11.07;1.80;;;1.70;99.90;;;;;;5089897;28;20169;-74
2021/12/20 06:36:06;;;;;;;6.77;1.47;;;1.70;99.90;;;;;;5090239;28;20199;-73
2021/12/20 06:38:34;;;;;;;5.63;1.60;;;1.60;99.90;;;;;;5089520;28;20171;-74
2021/12/20 06:40:59;;;;;;;6.03;1.67;;;1.60;99.90;;;;;;5090045;28;20171;-74
2021/12/20 06:43:25;;;;;;;6.73;1.57;;;1.60;99.90;;;;;;5089963;28;20522;-74
2021/12/20 06:45:51;;;;;;;7.07;1.63;;;1.60;99.90;;;;;;5089956;28;20240;-74
2021/12/20 06:48:17;;;;;;;6.17;1.80;;;1.70;99.90;;;;;;5089542;28;20197;-76
2021/12/20 06:50:42;;;;;;;5.80;1.53;;;1.70;99.90;;;;;;5091396;28;20163;-74
2021/12/20 06:53:08;;;;;;;8.20;1.67;;;1.70;99.90;;;;;;5091432;28;20268;-74
2021/12/20 06:55:34;;;;;;;6.60;1.60;;;1.70;99.90;;;;;;5091424;28;20202;-75
2021/12/20 06:58:00;;;;;;;9.83;1.60;;;1.70;99.90;;;;;;5090839;28;20262;-74
2021/12/20 07:00:27;;;;;;;5.17;1.13;;;1.70;99.90;;;;;;5089992;28;20190;-75
2021/12/20 07:02:53;;;;;;;7.70;1.63;;;1.70;99.90;;;;;;5091007;28;20181;-74
2021/12/20 07:05:18;;;;;;;8.80;1.60;;;1.70;99.90;;;;;;5093342;28;20226;-74
2021/12/20 07:07:44;;;;;;;7.60;1.80;;;1.70;99.90;;;;;;5094832;28;20190;-75
2021/12/20 07:10:10;;;;;;;5.13;1.63;;;1.70;99.90;;;;;;5094731;28;20174;-74
2021/12/20 07:12:37;;;;;;;5.67;1.60;;;1.70;99.90;;;;;;5094328;28;20653;-74
2021/12/20 07:15:05;;;;;;;6.37;1.30;;;1.70;99.90;;;;;;5088366;28;20630;-75
2021/12/20 07:17:31;;;;;;;4.73;1.47;;;1.80;99.90;;;;;;5074875;28;20524;-75
2021/12/20 07:19:58;;;;;;;7.90;1.50;;;1.70;99.90;;;;;;5074009;28;20253;-75
2021/12/20 07:22:24;;;;;;;4.03;1.87;;;1.80;99.90;;;;;;5073110;28;20187;-75
2021/12/20 07:24:50;;;;;;;8.50;1.43;;;1.80;99.90;;;;;;5074310;28;20187;-75
2021/12/20 07:27:18;;;;;;;7.67;1.80;;;1.80;99.90;;;;;;5074532;28;20508;-74
2021/12/20 07:29:44;;;;;;;8.53;2.03;;;1.80;99.90;;;;;;5074105;28;20167;-75
2021/12/20 07:32:11;;;;;;;7.00;1.70;;;1.90;99.90;;;;;;5075679;28;20225;-75
2021/12/20 07:34:37;;;;;;;4.83;2.00;;;1.90;99.90;;;;;;5073999;28;20728;-75
2021/12/20 07:37:03;;;;;;;6.33;2.20;;;1.90;99.90;;;;;;5074219;28;20174;-75
2021/12/20 07:39:29;;;;;;;8.87;2.77;;;1.90;99.90;;;;;;5072816;28;20566;-75
2021/12/20 07:41:55;;;;;;;6.60;3.10;;;1.90;99.90;;;;;;5086999;28;20194;-75
2021/12/20 07:44:21;;;;;;;7.37;3.07;;;1.90;99.90;;;;;;5093590;28;20209;-73
2021/12/20 07:46:47;;;;;;;10.13;3.47;;;2.00;99.90;;;;;;5076538;28;20167;-74
2021/12/20 07:49:12;;;;;;;5.90;2.00;;;2.00;99.90;;;;;;5093242;28;20193;-75
2021/12/20 07:51:38;;;;;;;5.43;1.93;;;2.00;99.90;;;;;;5098923;28;20228;-75
2021/12/20 07:54:03;;;;;;;13.90;4.13;;;2.00;99.90;;;;;;5082410;28;20203;-75
2021/12/20 07:56:29;;;;;;;7.63;2.77;;;2.00;99.90;;;;;;5091224;28;20178;-74
2021/12/20 07:58:54;;;;;;;8.97;2.97;;;2.00;99.90;;;;;;5084213;28;20166;-74
2021/12/20 08:01:20;;;;;;;9.90;1.60;;;2.10;99.90;;;;;;5088017;28;20190;-74
2021/12/20 08:03:45;;;;;;;14.70;3.17;;;2.10;99.90;;;;;;5085888;28;20170;-74
2021/12/20 08:06:11;;;;;;;11.03;3.20;;;2.10;99.90;;;;;;5085400;28;20183;-74
2021/12/20 08:08:37;;;;;;;10.77;3.67;;;2.10;99.90;;;;;;5093144;28;20582;-74
2021/12/20 08:11:02;;;;;;;11.70;3.60;;;2.10;99.90;;;;;;5094123;28;20524;-74
2021/12/20 08:13:28;;;;;;;5.90;2.93;;;2.10;99.90;;;;;;5088009;28;20206;-74
2021/12/20 08:15:54;;;;;;;11.27;3.83;;;2.10;99.90;;;;;;5080072;28;20288;-75
2021/12/20 08:18:20;;;;;;;8.27;3.00;;;2.10;99.90;;;;;;5093079;28;20278;-74
2021/12/20 08:20:46;;;;;;;8.40;1.90;;;2.20;99.90;;;;;;5076921;28;20171;-74
2021/12/20 08:23:11;;;;;;;7.80;2.90;;;2.20;99.90;;;;;;5083073;28;20185;-75
2021/12/20 08:25:39;;;;;;;9.23;2.70;;;2.30;99.90;;;;;;5084809;28;20202;-74
2021/12/20 08:28:08;;;;;;;8.03;2.20;;;2.40;99.90;;;;;;5090448;28;20166;-74
2021/12/20 08:30:34;;;;;;;9.97;3.13;;;2.50;99.90;;;;;;5080243;28;20609;-76
2021/12/20 08:33:00;;;;;;;11.00;3.23;;;2.50;99.90;;;;;;5088070;28;20205;-74
2021/12/20 08:35:26;;;;;;;17.33;5.07;;;2.60;99.90;;;;;;5083052;28;20678;-73
2021/12/20 08:37:53;;;;;;;7.27;3.10;;;2.70;99.90;;;;;;5090034;28;20659;-74
2021/12/20 08:40:19;;;;;;;8.93;2.97;;;2.80;99.90;;;;;;5090545;28;20221;-75
2021/12/20 08:42:46;;;;;;;8.13;3.20;;;3.10;99.90;;;;;;5093560;28;20172;-75
2021/12/20 08:45:13;;;;;;;13.83;4.23;;;3.30;99.90;;;;;;5096735;28;20685;-73
2021/12/20 08:47:39;;;;;;;9.57;3.90;;;3.50;99.90;;;;;;5085976;28;20555;-74
2021/12/20 08:50:08;;;;;;;7.03;3.10;;;3.80;99.90;;;;;;5092519;28;20195;-76
2021/12/20 08:52:33;;;;;;;4.67;2.17;;;3.90;99.90;;;;;;5082919;28;20192;-75
2021/12/20 08:54:59;;;;;;;10.53;2.37;;;4.00;99.90;;;;;;5092640;28;20550;-74
2021/12/20 08:57:24;;;;;;;5.93;1.87;;;4.10;99.90;;;;;;5092348;28;20189;-75
2021/12/20 08:59:50;;;;;;;8.43;2.23;;;4.30;99.90;;;;;;5091713;28;20278;-75
2021/12/20 09:02:16;;;;;;;6.43;2.07;;;4.20;99.90;;;;;;5092269;28;20655;-76
2021/12/20 09:04:42;;;;;;;6.20;2.60;;;4.20;99.90;;;;;;5083716;28;20854;-74
2021/12/20 09:07:14;;;;;;;6.90;1.80;;;3.80;99.90;;;;;;5086950;28;20249;-74
2021/12/20 09:09:43;;;;;;;6.83;2.40;;;3.70;99.90;;;;;;5089384;28;20273;-74
2021/12/20 09:12:09;;;;;;;7.07;2.10;;;3.50;99.90;;;;;;5090772;28;20199;-73
2021/12/20 09:14:34;;;;;;;4.90;1.87;;;3.40;99.90;;;;;;5085026;28;20211;-74
2021/12/20 09:17:01;;;;;;;15.93;3.07;;;3.30;99.90;;;;;;5103477;28;20165;-76
2021/12/20 09:19:26;;;;;;;9.97;1.87;;;3.30;99.90;;;;;;5106330;28;20200;-76
2021/12/20 09:21:52;;;;;;;5.17;1.50;;;3.10;99.90;;;;;;5112689;28;20194;-74
2021/12/20 09:24:18;;;;;;;5.77;2.07;;;3.10;99.90;;;;;;5082228;28;20694;-76
2021/12/20 09:26:43;;;;;;;5.17;1.87;;;3.00;99.90;;;;;;5079019;28;20609;-74
2021/12/20 09:29:09;;;;;;;6.03;2.23;;;3.00;99.90;;;;;;5085220;28;20173;-74
2021/12/20 09:31:34;;;;;;;8.57;1.97;;;3.00;99.90;;;;;;5084465;28;20256;-74
2021/12/20 09:34:00;;;;;;;7.43;2.10;;;3.00;99.90;;;;;;5086502;28;20215;-76
2021/12/20 09:36:29;;;;;;;7.77;2.10;;;3.00;99.90;;;;;;5091371;28;20197;-75
2021/12/20 09:38:56;;;;;;;9.17;1.93;;;2.90;99.90;;;;;;5079488;28;20178;-75
2021/12/20 09:44:18;;;;;;;9.00;2.07;;;3.00;99.90;;;;;;5068174;28;20229;-75
2021/12/20 09:46:44;;;;;;;11.43;2.00;;;3.00;99.90;;;;;;5077587;28;20191;-74
2021/12/20 09:49:10;;;;;;;7.07;2.40;;;3.00;99.90;;;;;;5091426;28;20179;-75
2021/12/20 09:51:36;;;;;;;7.30;1.70;;;3.20;99.90;;;;;;5089964;28;20178;-73
2021/12/20 09:54:02;;;;;;;11.47;2.77;;;3.40;99.90;;;;;;5076534;28;20195;-73
2021/12/20 09:56:28;;;;;;;6.00;2.20;;;3.60;99.90;;;;;;5091080;28;20190;-72
2021/12/20 09:58:57;;;;;;;9.33;2.30;;;3.80;99.90;;;;;;5103244;28;20197;-72
2021/12/20 10:01:25;;;;;;;6.03;1.97;;;4.00;99.90;;;;;;5091409;28;20183;-72
2021/12/20 10:03:52;;;;;;;9.47;2.13;;;4.20;99.90;;;;;;5089007;28;20578;-72
2021/12/20 10:06:19;;;;;;;8.17;2.37;;;4.30;99.90;;;;;;5090715;28;20177;-72
2021/12/20 10:08:52;;;;;;;6.93;1.83;;;4.40;99.90;;;;;;5090546;28;20535;-74
2021/12/20 10:11:24;;;;;;;3.60;1.53;;;4.50;99.90;;;;;;5091174;28;20625;-75
2021/12/20 10:14:04;;;;;;;6.03;1.80;;;4.60;99.90;;;;;;5090896;28;20173;-72
2021/12/20 10:16:30;;;;;;;5.33;1.87;;;4.70;99.90;;;;;;5093179;28;20189;-72
2021/12/20 10:18:56;;;;;;;8.37;2.80;;;4.80;99.90;;;;;;5088098;28;20260;-71
2021/12/20 10:21:39;;;;;;;13.07;3.60;;;4.80;99.90;;;;;;5089126;28;20258;-72
2021/12/20 10:24:06;;;;;;;9.47;3.77;;;5.00;99.90;;;;;;5070404;28;20819;-72
2021/12/20 10:26:40;;;;;;;7.60;2.80;;;5.00;99.90;;;;;;5077469;28;20696;-73
2021/12/20 10:29:20;;;;;;;10.80;4.00;;;5.00;99.90;;;;;;5091755;28;20942;-72
2021/12/20 10:31:46;;;;;;;11.23;4.40;;;5.00;99.90;;;;;;5091909;28;20249;-72
2021/12/20 10:34:13;;;;;;;6.40;3.00;;;5.00;99.90;;;;;;5091396;28;20233;-72
2021/12/20 10:36:53;;;;;;;12.03;3.70;;;5.10;99.90;;;;;;5074647;28;20169;-71
2021/12/20 10:43:15;;;;;;;15.07;4.07;;;5.20;99.90;;;;;;5076601;28;20225;-77
2021/12/20 10:48:57;;;;;;;12.83;2.93;;;5.40;99.90;;;;;;5073477;28;20243;-71
2021/12/20 10:51:26;;;;;;;5.97;2.30;;;5.40;99.90;;;;;;5077525;28;20224;-74
2021/12/20 10:54:00;;;;;;;9.63;3.10;;;5.30;99.90;;;;;;5095005;28;20267;-73
2021/12/20 10:56:28;;;;;;;10.00;3.07;;;5.40;99.90;;;;;;5095183;28;20288;-72
2021/12/20 10:58:56;;;;;;;11.03;4.10;;;5.30;99.90;;;;;;5094477;28;20691;-72
2021/12/20 11:01:45;;;;;;;19.40;5.63;;;5.40;99.90;;;;;;5095986;28;20784;-71
2021/12/20 11:04:19;;;;;;;18.47;6.10;;;5.50;99.90;;;;;;5095043;28;20298;-71
2021/12/20 11:07:02;;;;;;;11.77;4.43;;;5.60;99.90;;;;;;5086619;28;20188;-71
2021/12/20 11:09:34;;;;;;;11.37;2.93;;;5.50;99.90;;;;;;5094852;28;20177;-72
2021/12/20 11:12:06;;;;;;;8.30;2.27;;;5.50;99.90;;;;;;5094000;28;20185;-71
2021/12/20 11:14:37;;;;;;;7.00;2.23;;;5.60;99.90;;;;;;5094744;28;20292;-72
2021/12/20 11:17:05;;;;;;;7.90;3.10;;;5.60;99.90;;;;;;5094984;28;20577;-72
2021/12/20 11:19:32;;;;;;;5.67;1.87;;;5.50;99.90;;;;;;5094658;28;20178;-72
2021/12/20 11:22:15;;;;;;;7.87;2.30;;;5.50;99.90;;;;;;5094967;28;20187;-71
2021/12/20 11:24:47;;;;;;;8.90;2.47;;;5.50;99.90;;;;;;5093251;28;20307;-71
2021/12/20 11:27:21;;;;;;;5.80;1.70;;;5.40;99.90;;;;;;5079546;28;20175;-72
2021/12/20 11:29:49;;;;;;;8.00;2.10;;;5.40;99.90;;;;;;5086089;28;20250;-71
2021/12/20 11:32:16;;;;;;;9.23;2.23;;;5.50;99.90;;;;;;5087335;28;20213;-72
2021/12/20 11:34:42;;;;;;;5.80;2.43;;;5.50;99.90;;;;;;5072954;28;20293;-72
2021/12/20 11:37:13;;;;;;;6.33;1.90;;;5.60;99.90;;;;;;5074372;28;20294;-71
2021/12/20 11:39:39;;;;;;;4.50;1.90;;;5.60;99.90;;;;;;5073852;28;20627;-70
2021/12/20 11:42:07;;;;;;;4.63;1.83;;;5.60;99.90;;;;;;5074080;28;20257;-71
2021/12/20 11:44:34;;;;;;;4.83;1.80;;;5.70;99.90;;;;;;5072742;28;20191;-73
2021/12/20 11:47:29;;;;;;;7.00;2.07;;;5.80;99.90;;;;;;5087102;28;20642;-72
2021/12/20 11:49:58;;;;;;;10.57;2.27;;;5.70;99.90;;;;;;5085643;28;20622;-73
2021/12/20 11:52:28;;;;;;;8.17;1.90;;;5.50;99.90;;;;;;5099123;28;20273;-70
2021/12/20 11:54:54;;;;;;;11.27;2.30;;;5.40;99.90;;;;;;5093042;28;20206;-73
2021/12/20 11:57:28;;;;;;;7.93;1.63;;;5.40;99.90;;;;;;5085726;28;20182;-71
2021/12/20 11:59:56;;;;;;;8.83;1.90;;;5.50;99.90;;;;;;5074751;28;20185;-72
2021/12/20 12:02:31;;;;;;;8.57;2.87;;;5.50;99.90;;;;;;5094425;28;20162;-71
2021/12/20 12:05:09;;;;;;;16.40;2.50;;;5.50;99.90;;;;;;5094091;28;20189;-72
2021/12/20 12:07:36;;;;;;;9.47;2.43;;;5.40;99.90;;;;;;5092898;28;20227;-71
2021/12/20 12:10:14;;;;;;;19.43;2.53;;;5.30;99.90;;;;;;5085961;28;20183;-74
2021/12/20 12:12:43;;;;;;;6.53;2.03;;;5.30;99.90;;;;;;5091539;28;20186;-71
2021/12/20 12:15:20;;;;;;;11.27;2.60;;;5.20;99.90;;;;;;5092871;28;20202;-72
2021/12/20 12:18:04;;;;;;;8.07;2.20;;;5.30;99.90;;;;;;5072791;28;20631;-71
2021/12/20 12:20:41;;;;;;;4.37;1.87;;;5.30;99.90;;;;;;5073076;28;20615;-71
2021/12/20 12:23:37;;;;;;;6.73;2.67;;;5.20;99.90;;;;;;5071642;28;20582;-71
2021/12/20 12:26:05;;;;;;;9.30;2.33;;;5.30;99.90;;;;;;5070699;28;20214;-72
2021/12/20 12:28:55;;;;;;;3.47;1.67;;;5.20;99.90;;;;;;5081888;28;20170;-70
2021/12/20 12:31:21;;;;;;;5.50;1.97;;;5.20;99.90;;;;;;5092052;28;20631;-76
2021/12/20 12:33:47;;;;;;;2.47;1.10;;;5.30;99.90;;;;;;5093662;28;20220;-75
2021/12/20 12:36:24;;;;;;;5.07;2.00;;;5.30;99.90;;;;;;5091830;28;20237;-72
2021/12/20 12:38:53;;;;;;;8.93;2.20;;;5.30;99.90;;;;;;5092716;28;20653;-71
2021/12/20 12:41:25;;;;;;;5.77;2.63;;;5.20;99.90;;;;;;5091628;28;20570;-72
2021/12/20 12:43:58;;;;;;;3.40;1.60;;;5.30;99.90;;;;;;5092772;28;20175;-70
2021/12/20 12:46:36;;;;;;;7.90;1.97;;;5.30;99.90;;;;;;5091537;28;20175;-69
2021/12/20 12:49:20;;;;;;;7.40;2.53;;;5.30;99.90;;;;;;5092208;28;20631;-70
2021/12/20 12:51:50;;;;;;;6.67;1.83;;;5.30;99.90;;;;;;5092708;28;20185;-70
2021/12/20 12:54:44;;;;;;;6.63;2.00;;;5.20;99.90;;;;;;5092745;28;20244;-74
2021/12/20 12:57:10;;;;;;;5.70;1.60;;;5.10;99.90;;;;;;5092326;28;20211;-73
2021/12/20 12:59:47;;;;;;;10.47;2.50;;;5.10;99.90;;;;;;5092081;28;20167;-70
2021/12/20 13:02:23;;;;;;;6.60;2.00;;;5.10;99.90;;;;;;5092239;28;20531;-70
2021/12/20 13:04:50;;;;;;;8.63;1.73;;;5.10;99.90;;;;;;5085004;28;20567;-74
2021/12/20 13:07:30;;;;;;;5.23;1.90;;;5.00;99.90;;;;;;5071024;28;21264;-71
2021/12/20 13:09:59;;;;;;;11.60;2.77;;;5.00;99.90;;;;;;5071955;28;20173;-74
2021/12/20 13:12:41;;;;;;;4.40;2.10;;;5.00;99.90;;;;;;5072070;28;20167;-73
2021/12/20 13:17:55;;;;;;;3.50;1.93;;;5.10;99.90;;;;;;5090931;28;20197;-73
2021/12/20 13:20:35;;;;;;;7.43;2.10;;;5.20;99.90;;;;;;5083433;28;20171;-71
2021/12/20 13:23:07;;;;;;;5.47;2.00;;;5.30;99.90;;;;;;5072133;28;20163;-73
2021/12/20 13:25:36;;;;;;;7.90;2.10;;;5.30;99.90;;;;;;5071655;28;20197;-73